sensor_id;sensor_type;location;lat;lon;timestamp;temperature;humidity
15922;DHT22;8060;50.948;3.146;2023-06-14T04:06:38;19.70;99.90
15922;DHT22;8060;50.948;3.146;2023-06-14T04:09:08;19.60;99.90
15922;DHT22;8060;50.948;3.146;2023-06-14T04:11:36;19.60;99.90
15922;DHT22;8060;50.948;3.146;2023-06-14T04:14:05;19.70;99.90
15922;DHT22;8060;50.948;3.146;2023-06-14T04:16:33;19.70;99.90
15922;DHT22;8060;50.948;3.146;2023-06-14T04:19:02;19.70;99.90
15922;DHT22;8060;50.948;3.146;2023-06-14T04:21:30;19.70;99.90
15922;DHT22;8060;50.948;3.146;2023-06-14T04:24:03;19.80;99.90
15922;DHT22;8060;50.948;3.146;2023-06-14T04:26:32;19.80;99.90
15922;DHT22;8060;50.948;3.146;2023-06-14T04:29:00;19.90;99.90
15922;DHT22;8060;50.948;3.146;2023-06-14T04:31:29;19.90;99.90
15922;DHT22;8060;50.948;3.146;2023-06-14T04:34:00;20.00;99.90
15922;DHT22;8060;50.948;3.146;2023-06-14T04:36:32;20.00;99.90
15922;DHT22;8060;50.948;3.146;2023-06-14T04:39:05;20.10;99.90
15922;DHT22;8060;50.948;3.146;2023-06-14T04:41:33;20.10;99.90
15922;DHT22;8060;50.948;3.146;2023-06-14T04:44:01;20.20;99.90
15922;DHT22;8060;50.948;3.146;2023-06-14T04:46:30;20.20;99.90
15922;DHT22;8060;50.948;3.146;2023-06-14T04:48:59;20.30;99.90
15922;DHT22;8060;50.948;3.146;2023-06-14T04:51:29;20.30;99.90
15922;DHT22;8060;50.948;3.146;2023-06-14T04:53:57;20.30;99.90
15922;DHT22;8060;50.948;3.146;2023-06-14T04:56:27;20.40;99.90
15922;DHT22;8060;50.948;3.146;2023-06-14T04:58:57;20.50;99.90
15922;DHT22;8060;50.948;3.146;2023-06-14T05:01:25;20.50;99.90
15922;DHT22;8060;50.948;3.146;2023-06-14T05:03:53;20.50;99.90
15922;DHT22;8060;50.948;3.146;2023-06-14T05:06:21;20.60;99.90
15922;DHT22;8060;50.948;3.146;2023-06-14T05:08:49;20.70;99.90
15922;DHT22;8060;50.948;3.146;2023-06-14T05:11:18;20.70;99.90
15922;DHT22;8060;50.948;3.146;2023-06-14T05:13:47;20.70;99.90
15922;DHT22;8060;50.948;3.146;2023-06-14T05:16:16;20.80;99.90
15922;DHT22;8060;50.948;3.146;2023-06-14T05:18:46;20.80;99.90
15922;DHT22;8060;50.948;3.146;2023-06-14T05:21:15;20.90;99.90
15922;DHT22;8060;50.948;3.146;2023-06-14T05:23:44;20.90;99.90
15922;DHT22;8060;50.948;3.146;2023-06-14T05:26:13;21.00;99.90
15922;DHT22;8060;50.948;3.146;2023-06-14T05:28:41;21.00;99.90
15922;DHT22;8060;50.948;3.146;2023-06-14T05:31:11;21.00;99.90
15922;DHT22;8060;50.948;3.146;2023-06-14T05:33:39;21.10;99.90
15922;DHT22;8060;50.948;3.146;2023-06-14T05:36:07;21.20;99.90
15922;DHT22;8060;50.948;3.146;2023-06-14T05:38:35;21.20;99.90
15922;DHT22;8060;50.948;3.146;2023-06-14T05:41:03;21.30;99.90
15922;DHT22;8060;50.948;3.146;2023-06-14T05:43:31;21.40;99.90
15922;DHT22;8060;50.948;3.146;2023-06-14T05:45:59;21.40;99.90
15922;DHT22;8060;50.948;3.146;2023-06-14T05:48:30;21.50;99.90
15922;DHT22;8060;50.948;3.146;2023-06-14T05:50:59;21.50;99.90
15922;DHT22;8060;50.948;3.146;2023-06-14T05:53:27;21.60;99.90
15922;DHT22;8060;50.948;3.146;2023-06-14T05:55:55;21.70;99.90
15922;DHT22;8060;50.948;3.146;2023-06-14T05:58:23;21.70;99.90
15922;DHT22;8060;50.948;3.146;2023-06-14T06:00:52;21.90;99.90
15922;DHT22;8060;50.948;3.146;2023-06-14T06:03:20;21.90;99.90
15922;DHT22;8060;50.948;3.146;2023-06-14T06:05:51;22.00;99.90
15922;DHT22;8060;50.948;3.146;2023-06-14T06:08:19;22.10;99.90
15922;DHT22;8060;50.948;3.146;2023-06-14T06:11:12;22.20;99.90
15922;DHT22;8060;50.948;3.146;2023-06-14T06:13:40;22.30;99.90
15922;DHT22;8060;50.948;3.146;2023-06-14T06:16:08;22.30;99.90
15922;DHT22;8060;50.948;3.146;2023-06-14T06:18:37;22.40;99.90
15922;DHT22;8060;50.948;3.146;2023-06-14T06:21:06;22.50;99.90
15922;DHT22;8060;50.948;3.146;2023-06-14T06:23:34;22.60;99.90
15922;DHT22;8060;50.948;3.146;2023-06-14T06:26:03;22.60;99.90
15922;DHT22;8060;50.948;3.146;2023-06-14T06:28:32;22.80;99.90
15922;DHT22;8060;50.948;3.146;2023-06-14T06:31:00;22.80;99.90
15922;DHT22;8060;50.948;3.146;2023-06-14T06:33:31;22.90;99.90
15922;DHT22;8060;50.948;3.146;2023-06-14T06:35:59;22.90;99.90
15922;DHT22;8060;50.948;3.146;2023-06-14T06:38:28;23.00;99.90
15922;DHT22;8060;50.948;3.146;2023-06-14T06:40:56;23.10;99.90
15922;DHT22;8060;50.948;3.146;2023-06-14T06:43:24;23.20;99.90
15922;DHT22;8060;50.948;3.146;2023-06-14T06:45:53;23.20;99.90
15922;DHT22;8060;50.948;3.146;2023-06-14T06:48:21;23.30;99.90
15922;DHT22;8060;50.948;3.146;2023-06-14T06:50:49;23.40;99.90
15922;DHT22;8060;50.948;3.146;2023-06-14T06:53:18;23.50;99.90
15922;DHT22;8060;50.948;3.146;2023-06-14T06:55:57;23.60;99.90
15922;DHT22;8060;50.948;3.146;2023-06-14T06:58:26;23.70;99.90
15922;DHT22;8060;50.948;3.146;2023-06-14T07:00:54;23.90;99.90
15922;DHT22;8060;50.948;3.146;2023-06-14T07:03:22;24.00;99.90
15922;DHT22;8060;50.948;3.146;2023-06-14T07:05:51;24.10;99.90
15922;DHT22;8060;50.948;3.146;2023-06-14T07:08:19;24.20;99.90
15922;DHT22;8060;50.948;3.146;2023-06-14T07:10:47;24.30;99.90
15922;DHT22;8060;50.948;3.146;2023-06-14T07:13:16;24.40;99.90
15922;DHT22;8060;50.948;3.146;2023-06-14T07:15:44;24.50;99.90
15922;DHT22;8060;50.948;3.146;2023-06-14T07:18:13;24.50;99.90
15922;DHT22;8060;50.948;3.146;2023-06-14T07:20:42;24.60;99.90
15922;DHT22;8060;50.948;3.146;2023-06-14T07:23:10;24.70;99.90
15922;DHT22;8060;50.948;3.146;2023-06-14T07:25:38;24.90;99.90
15922;DHT22;8060;50.948;3.146;2023-06-14T07:28:07;25.00;99.90
15922;DHT22;8060;50.948;3.146;2023-06-14T07:30:36;25.10;99.90
15922;DHT22;8060;50.948;3.146;2023-06-14T07:33:04;25.10;99.90
15922;DHT22;8060;50.948;3.146;2023-06-14T07:35:33;25.20;99.90
15922;DHT22;8060;50.948;3.146;2023-06-14T07:38:01;25.40;99.90
15922;DHT22;8060;50.948;3.146;2023-06-14T07:40:29;25.40;99.90
15922;DHT22;8060;50.948;3.146;2023-06-14T07:42:57;25.50;99.90
15922;DHT22;8060;50.948;3.146;2023-06-14T07:45:26;25.60;99.90
15922;DHT22;8060;50.948;3.146;2023-06-14T07:47:55;25.80;99.90
15922;DHT22;8060;50.948;3.146;2023-06-14T07:50:24;25.90;99.90
15922;DHT22;8060;50.948;3.146;2023-06-14T07:52:52;26.00;99.90
15922;DHT22;8060;50.948;3.146;2023-06-14T07:55:20;26.20;99.90
15922;DHT22;8060;50.948;3.146;2023-06-14T07:57:49;26.30;99.90
15922;DHT22;8060;50.948;3.146;2023-06-14T08:00:18;26.40;99.90
15922;DHT22;8060;50.948;3.146;2023-06-14T08:02:47;26.50;99.90
15922;DHT22;8060;50.948;3.146;2023-06-14T08:05:16;26.70;99.90
15922;DHT22;8060;50.948;3.146;2023-06-14T08:07:44;26.70;99.90
15922;DHT22;8060;50.948;3.146;2023-06-14T08:10:13;26.90;99.90
15922;DHT22;8060;50.948;3.146;2023-06-14T08:12:41;27.00;99.90
15922;DHT22;8060;50.948;3.146;2023-06-14T08:15:10;27.10;99.90
15922;DHT22;8060;50.948;3.146;2023-06-14T08:17:42;27.20;99.90
15922;DHT22;8060;50.948;3.146;2023-06-14T08:20:11;27.50;99.90
15922;DHT22;8060;50.948;3.146;2023-06-14T08:22:40;27.60;99.90
15922;DHT22;8060;50.948;3.146;2023-06-14T08:25:09;27.70;99.90
15922;DHT22;8060;50.948;3.146;2023-06-14T08:27:39;27.90;99.90
15922;DHT22;8060;50.948;3.146;2023-06-14T08:30:09;28.00;99.90
15922;DHT22;8060;50.948;3.146;2023-06-14T08:32:37;28.10;99.90
15922;DHT22;8060;50.948;3.146;2023-06-14T08:35:06;28.20;99.90
15922;DHT22;8060;50.948;3.146;2023-06-14T08:37:39;28.30;99.90
15922;DHT22;8060;50.948;3.146;2023-06-14T08:40:18;28.40;99.50
15922;DHT22;8060;50.948;3.146;2023-06-14T08:42:50;28.50;99.90
15922;DHT22;8060;50.948;3.146;2023-06-14T08:45:19;28.50;99.90
15922;DHT22;8060;50.948;3.146;2023-06-14T08:47:51;28.60;99.90
15922;DHT22;8060;50.948;3.146;2023-06-14T08:50:26;28.80;98.90
15922;DHT22;8060;50.948;3.146;2023-06-14T08:53:01;29.00;97.80
15922;DHT22;8060;50.948;3.146;2023-06-14T08:55:31;29.10;97.20
15922;DHT22;8060;50.948;3.146;2023-06-14T08:58:03;29.20;98.00
15922;DHT22;8060;50.948;3.146;2023-06-14T09:00:32;29.30;96.60
15922;DHT22;8060;50.948;3.146;2023-06-14T09:03:01;29.30;95.70
15922;DHT22;8060;50.948;3.146;2023-06-14T09:05:30;29.30;96.30
15922;DHT22;8060;50.948;3.146;2023-06-14T09:08:00;29.30;93.90
15922;DHT22;8060;50.948;3.146;2023-06-14T09:10:32;29.40;94.20
15922;DHT22;8060;50.948;3.146;2023-06-14T09:13:02;29.40;93.10
15922;DHT22;8060;50.948;3.146;2023-06-14T09:15:31;29.50;92.90
15922;DHT22;8060;50.948;3.146;2023-06-14T09:18:01;29.40;93.40
15922;DHT22;8060;50.948;3.146;2023-06-14T09:20:33;29.40;91.90
15922;DHT22;8060;50.948;3.146;2023-06-14T09:23:03;29.60;90.50
15922;DHT22;8060;50.948;3.146;2023-06-14T09:25:32;29.70;90.30
15922;DHT22;8060;50.948;3.146;2023-06-14T09:28:07;29.90;91.00
15922;DHT22;8060;50.948;3.146;2023-06-14T09:30:37;30.00;90.60
15922;DHT22;8060;50.948;3.146;2023-06-14T09:33:05;30.00;91.00
15922;DHT22;8060;50.948;3.146;2023-06-14T09:35:34;30.30;90.10
15922;DHT22;8060;50.948;3.146;2023-06-14T09:38:04;30.30;87.60
15922;DHT22;8060;50.948;3.146;2023-06-14T09:40:34;30.50;89.40
15922;DHT22;8060;50.948;3.146;2023-06-14T09:43:06;30.70;85.80
15922;DHT22;8060;50.948;3.146;2023-06-14T09:45:35;30.90;82.80
15922;DHT22;8060;50.948;3.146;2023-06-14T09:48:07;31.00;83.70
15922;DHT22;8060;50.948;3.146;2023-06-14T09:50:35;31.00;82.10
15922;DHT22;8060;50.948;3.146;2023-06-14T09:53:07;31.20;83.90
15922;DHT22;8060;50.948;3.146;2023-06-14T09:55:40;31.30;79.30
15922;DHT22;8060;50.948;3.146;2023-06-14T09:58:10;31.30;80.30
15922;DHT22;8060;50.948;3.146;2023-06-14T10:00:39;31.40;80.00
15922;DHT22;8060;50.948;3.146;2023-06-14T10:03:12;31.40;79.90
15922;DHT22;8060;50.948;3.146;2023-06-14T10:05:43;31.60;80.70
15922;DHT22;8060;50.948;3.146;2023-06-14T10:08:16;31.60;80.20
15922;DHT22;8060;50.948;3.146;2023-06-14T10:10:46;31.60;77.30
15922;DHT22;8060;50.948;3.146;2023-06-14T10:13:14;31.50;76.40
15922;DHT22;8060;50.948;3.146;2023-06-14T10:15:50;31.60;77.30
15922;DHT22;8060;50.948;3.146;2023-06-14T10:18:27;31.80;76.40
15922;DHT22;8060;50.948;3.146;2023-06-14T10:21:04;31.90;78.00
15922;DHT22;8060;50.948;3.146;2023-06-14T10:23:40;32.00;78.90
15922;DHT22;8060;50.948;3.146;2023-06-14T10:26:19;31.90;77.30
15922;DHT22;8060;50.948;3.146;2023-06-14T10:28:59;31.80;75.70
15922;DHT22;8060;50.948;3.146;2023-06-14T10:31:42;31.50;75.30
15922;DHT22;8060;50.948;3.146;2023-06-14T10:34:11;31.70;76.80
15922;DHT22;8060;50.948;3.146;2023-06-14T10:36:42;31.90;77.80
15922;DHT22;8060;50.948;3.146;2023-06-14T10:39:15;32.00;76.60
15922;DHT22;8060;50.948;3.146;2023-06-14T10:41:52;32.10;76.30
15922;DHT22;8060;50.948;3.146;2023-06-14T10:44:49;32.20;75.40
15922;DHT22;8060;50.948;3.146;2023-06-14T10:47:26;32.20;77.50
15922;DHT22;8060;50.948;3.146;2023-06-14T10:49:55;32.40;75.90
15922;DHT22;8060;50.948;3.146;2023-06-14T10:52:26;32.60;75.20
15922;DHT22;8060;50.948;3.146;2023-06-14T10:55:17;32.70;74.20
15922;DHT22;8060;50.948;3.146;2023-06-14T10:57:48;33.00;73.40
15922;DHT22;8060;50.948;3.146;2023-06-14T11:00:21;33.10;72.70
15922;DHT22;8060;50.948;3.146;2023-06-14T11:06:13;33.30;74.20
15922;DHT22;8060;50.948;3.146;2023-06-14T11:11:48;33.40;73.20
15922;DHT22;8060;50.948;3.146;2023-06-14T11:14:17;33.40;72.00
15922;DHT22;8060;50.948;3.146;2023-06-14T11:16:48;33.60;72.30
15922;DHT22;8060;50.948;3.146;2023-06-14T11:19:16;33.60;72.10
15922;DHT22;8060;50.948;3.146;2023-06-14T11:21:47;33.70;72.40
15922;DHT22;8060;50.948;3.146;2023-06-14T11:24:16;34.00;71.30
15922;DHT22;8060;50.948;3.146;2023-06-14T11:26:46;33.90;70.80
15922;DHT22;8060;50.948;3.146;2023-06-14T11:29:16;33.90;69.60
15922;DHT22;8060;50.948;3.146;2023-06-14T11:31:45;33.80;71.20
15922;DHT22;8060;50.948;3.146;2023-06-14T11:34:13;33.80;70.90
15922;DHT22;8060;50.948;3.146;2023-06-14T11:36:43;33.90;70.80
15922;DHT22;8060;50.948;3.146;2023-06-14T11:39:12;34.10;69.80
15922;DHT22;8060;50.948;3.146;2023-06-14T11:41:42;34.20;70.00
15922;DHT22;8060;50.948;3.146;2023-06-14T11:44:11;34.20;67.50
15922;DHT22;8060;50.948;3.146;2023-06-14T11:46:40;34.30;67.70
15922;DHT22;8060;50.948;3.146;2023-06-14T11:49:09;34.20;68.60
15922;DHT22;8060;50.948;3.146;2023-06-14T11:51:37;34.30;67.80
15922;DHT22;8060;50.948;3.146;2023-06-14T11:54:06;34.30;66.50
15922;DHT22;8060;50.948;3.146;2023-06-14T11:56:36;34.30;66.30
15922;DHT22;8060;50.948;3.146;2023-06-14T11:59:04;34.40;65.90
15922;DHT22;8060;50.948;3.146;2023-06-14T12:01:36;34.50;67.20
15922;DHT22;8060;50.948;3.146;2023-06-14T12:04:07;34.40;65.20
15922;DHT22;8060;50.948;3.146;2023-06-14T12:06:36;34.50;66.10
15922;DHT22;8060;50.948;3.146;2023-06-14T12:09:07;34.60;67.70
15922;DHT22;8060;50.948;3.146;2023-06-14T12:11:40;34.50;68.00
15922;DHT22;8060;50.948;3.146;2023-06-14T12:14:08;34.40;66.60
15922;DHT22;8060;50.948;3.146;2023-06-14T12:16:38;34.30;67.10
15922;DHT22;8060;50.948;3.146;2023-06-14T12:19:13;34.20;66.90
15922;DHT22;8060;50.948;3.146;2023-06-14T12:21:41;34.20;67.80
15922;DHT22;8060;50.948;3.146;2023-06-14T12:24:11;34.00;65.90
15922;DHT22;8060;50.948;3.146;2023-06-14T12:26:41;34.00;66.90
15922;DHT22;8060;50.948;3.146;2023-06-14T12:29:09;34.10;66.70
15922;DHT22;8060;50.948;3.146;2023-06-14T12:31:39;34.10;65.80
15922;DHT22;8060;50.948;3.146;2023-06-14T12:34:10;34.20;66.80
15922;DHT22;8060;50.948;3.146;2023-06-14T12:36:38;34.20;67.00
15922;DHT22;8060;50.948;3.146;2023-06-14T12:39:11;34.20;67.10
15922;DHT22;8060;50.948;3.146;2023-06-14T12:41:40;34.00;66.90
15922;DHT22;8060;50.948;3.146;2023-06-14T12:44:09;34.30;67.30
15922;DHT22;8060;50.948;3.146;2023-06-14T12:46:38;34.40;67.00
15922;DHT22;8060;50.948;3.146;2023-06-14T12:49:09;34.30;65.00
15922;DHT22;8060;50.948;3.146;2023-06-14T12:51:38;34.20;66.70
15922;DHT22;8060;50.948;3.146;2023-06-14T12:54:07;34.20;65.20
15922;DHT22;8060;50.948;3.146;2023-06-14T12:56:35;34.30;65.90
15922;DHT22;8060;50.948;3.146;2023-06-14T12:59:03;34.30;65.00
15922;DHT22;8060;50.948;3.146;2023-06-14T13:01:33;34.20;65.70
15922;DHT22;8060;50.948;3.146;2023-06-14T13:04:01;34.30;66.20
15922;DHT22;8060;50.948;3.146;2023-06-14T13:06:31;34.20;65.30
15922;DHT22;8060;50.948;3.146;2023-06-14T13:09:00;34.00;65.50
15922;DHT22;8060;50.948;3.146;2023-06-14T13:11:28;34.10;65.80
15922;DHT22;8060;50.948;3.146;2023-06-14T13:13:57;34.20;66.70
15922;DHT22;8060;50.948;3.146;2023-06-14T13:16:28;34.40;65.30
15922;DHT22;8060;50.948;3.146;2023-06-14T13:18:56;34.40;66.10
15922;DHT22;8060;50.948;3.146;2023-06-14T13:21:24;34.40;64.10
15922;DHT22;8060;50.948;3.146;2023-06-14T13:23:53;34.40;64.30
15922;DHT22;8060;50.948;3.146;2023-06-14T13:26:22;34.20;63.80
15922;DHT22;8060;50.948;3.146;2023-06-14T13:28:50;34.10;65.90
15922;DHT22;8060;50.948;3.146;2023-06-14T13:31:19;34.20;64.80
15922;DHT22;8060;50.948;3.146;2023-06-14T13:33:47;34.00;65.20
15922;DHT22;8060;50.948;3.146;2023-06-14T13:36:15;34.00;66.00
15922;DHT22;8060;50.948;3.146;2023-06-14T13:38:43;34.00;66.30
15922;DHT22;8060;50.948;3.146;2023-06-14T13:41:16;34.00;66.00
15922;DHT22;8060;50.948;3.146;2023-06-14T13:43:44;33.80;65.40
15922;DHT22;8060;50.948;3.146;2023-06-14T13:46:12;34.00;64.90
15922;DHT22;8060;50.948;3.146;2023-06-14T13:48:40;34.10;65.20
15922;DHT22;8060;50.948;3.146;2023-06-14T13:51:08;34.00;64.40
15922;DHT22;8060;50.948;3.146;2023-06-14T13:53:38;33.90;65.40
15922;DHT22;8060;50.948;3.146;2023-06-14T13:56:06;33.90;65.10
15922;DHT22;8060;50.948;3.146;2023-06-14T13:58:37;33.80;64.80
15922;DHT22;8060;50.948;3.146;2023-06-14T14:01:05;33.80;64.10
15922;DHT22;8060;50.948;3.146;2023-06-14T14:03:34;33.70;64.10
15922;DHT22;8060;50.948;3.146;2023-06-14T14:06:03;33.50;64.30
15922;DHT22;8060;50.948;3.146;2023-06-14T14:08:32;33.50;65.20
15922;DHT22;8060;50.948;3.146;2023-06-14T14:11:00;33.40;64.90
15922;DHT22;8060;50.948;3.146;2023-06-14T14:13:28;33.20;65.90
15922;DHT22;8060;50.948;3.146;2023-06-14T14:15:58;33.10;64.60
15922;DHT22;8060;50.948;3.146;2023-06-14T14:18:26;33.10;65.70
15922;DHT22;8060;50.948;3.146;2023-06-14T14:20:57;33.00;65.30
15922;DHT22;8060;50.948;3.146;2023-06-14T14:23:27;33.10;65.90
15922;DHT22;8060;50.948;3.146;2023-06-14T14:25:56;33.10;65.20
15922;DHT22;8060;50.948;3.146;2023-06-14T14:28:24;33.00;66.20
15922;DHT22;8060;50.948;3.146;2023-06-14T14:30:52;33.10;65.70
15922;DHT22;8060;50.948;3.146;2023-06-14T14:33:22;33.00;65.30
15922;DHT22;8060;50.948;3.146;2023-06-14T14:35:50;32.90;65.30
15922;DHT22;8060;50.948;3.146;2023-06-14T14:38:18;32.70;65.00
15922;DHT22;8060;50.948;3.146;2023-06-14T14:40:46;32.60;66.00
15922;DHT22;8060;50.948;3.146;2023-06-14T14:43:14;32.70;66.30
15922;DHT22;8060;50.948;3.146;2023-06-14T14:45:42;32.70;66.20
15922;DHT22;8060;50.948;3.146;2023-06-14T14:48:11;32.60;66.70
15922;DHT22;8060;50.948;3.146;2023-06-14T14:50:40;32.50;66.30
15922;DHT22;8060;50.948;3.146;2023-06-14T14:53:08;32.50;66.70
15922;DHT22;8060;50.948;3.146;2023-06-14T14:55:36;32.50;66.00
15922;DHT22;8060;50.948;3.146;2023-06-14T14:58:06;32.50;66.20
15922;DHT22;8060;50.948;3.146;2023-06-14T15:00:35;32.50;66.70
15922;DHT22;8060;50.948;3.146;2023-06-14T15:03:03;32.60;67.30
15922;DHT22;8060;50.948;3.146;2023-06-14T15:05:31;32.60;68.00
15922;DHT22;8060;50.948;3.146;2023-06-14T15:08:01;32.70;68.50
15922;DHT22;8060;50.948;3.146;2023-06-14T15:10:29;32.70;67.80
15922;DHT22;8060;50.948;3.146;2023-06-14T15:12:57;32.60;68.50
15922;DHT22;8060;50.948;3.146;2023-06-14T15:15:26;32.60;67.00
15922;DHT22;8060;50.948;3.146;2023-06-14T15:17:54;32.50;67.60
15922;DHT22;8060;50.948;3.146;2023-06-14T15:20:22;32.40;68.00
15922;DHT22;8060;50.948;3.146;2023-06-14T15:22:50;32.40;67.60
15922;DHT22;8060;50.948;3.146;2023-06-14T15:25:20;32.40;68.60
15922;DHT22;8060;50.948;3.146;2023-06-14T15:27:55;32.30;69.10
15922;DHT22;8060;50.948;3.146;2023-06-14T15:30:23;32.50;68.90
15922;DHT22;8060;50.948;3.146;2023-06-14T15:32:52;32.40;68.10
15922;DHT22;8060;50.948;3.146;2023-06-14T15:35:20;32.30;68.30
15922;DHT22;8060;50.948;3.146;2023-06-14T15:37:48;32.10;69.70
15922;DHT22;8060;50.948;3.146;2023-06-14T15:40:16;32.20;68.80
15922;DHT22;8060;50.948;3.146;2023-06-14T15:42:46;32.10;68.60
15922;DHT22;8060;50.948;3.146;2023-06-14T15:45:14;32.20;68.50
15922;DHT22;8060;50.948;3.146;2023-06-14T15:47:43;32.00;68.70
15922;DHT22;8060;50.948;3.146;2023-06-14T15:50:11;32.00;68.30
15922;DHT22;8060;50.948;3.146;2023-06-14T15:52:40;31.80;68.50
15922;DHT22;8060;50.948;3.146;2023-06-14T15:55:08;31.70;68.70
15922;DHT22;8060;50.948;3.146;2023-06-14T15:57:37;31.70;68.70
15922;DHT22;8060;50.948;3.146;2023-06-14T16:00:07;31.90;68.80
15922;DHT22;8060;50.948;3.146;2023-06-14T16:02:36;31.80;69.30
15922;DHT22;8060;50.948;3.146;2023-06-14T16:05:04;31.80;68.70
15922;DHT22;8060;50.948;3.146;2023-06-14T16:07:33;31.90;69.00
15922;DHT22;8060;50.948;3.146;2023-06-14T16:10:01;31.80;68.20
15922;DHT22;8060;50.948;3.146;2023-06-14T16:12:29;31.50;67.50
15922;DHT22;8060;50.948;3.146;2023-06-14T16:14:57;31.30;68.20
15922;DHT22;8060;50.948;3.146;2023-06-14T16:17:27;31.10;68.60
15922;DHT22;8060;50.948;3.146;2023-06-14T16:19:55;31.00;70.00
15922;DHT22;8060;50.948;3.146;2023-06-14T16:22:23;31.10;69.10
15922;DHT22;8060;50.948;3.146;2023-06-14T16:24:51;31.00;68.90
15922;DHT22;8060;50.948;3.146;2023-06-14T16:27:19;31.10;69.30
15922;DHT22;8060;50.948;3.146;2023-06-14T16:29:48;31.10;68.70
15922;DHT22;8060;50.948;3.146;2023-06-14T16:32:16;31.10;68.90
15922;DHT22;8060;50.948;3.146;2023-06-14T16:34:46;31.00;68.50
15922;DHT22;8060;50.948;3.146;2023-06-14T16:37:14;30.90;68.30
15922;DHT22;8060;50.948;3.146;2023-06-14T16:39:42;31.00;68.70
15922;DHT22;8060;50.948;3.146;2023-06-14T16:42:10;30.90;68.80
15922;DHT22;8060;50.948;3.146;2023-06-14T16:44:39;30.80;69.70
15922;DHT22;8060;50.948;3.146;2023-06-14T16:47:07;30.80;68.50
15922;DHT22;8060;50.948;3.146;2023-06-14T16:49:37;30.70;68.80
15922;DHT22;8060;50.948;3.146;2023-06-14T16:52:07;30.50;68.90
15922;DHT22;8060;50.948;3.146;2023-06-14T16:54:35;30.40;68.50
15922;DHT22;8060;50.948;3.146;2023-06-14T16:57:03;30.30;68.50
15922;DHT22;8060;50.948;3.146;2023-06-14T16:59:32;30.30;68.70
15922;DHT22;8060;50.948;3.146;2023-06-14T17:02:04;30.30;69.00
15922;DHT22;8060;50.948;3.146;2023-06-14T17:04:32;30.20;68.80
15922;DHT22;8060;50.948;3.146;2023-06-14T17:07:01;30.00;69.20
15922;DHT22;8060;50.948;3.146;2023-06-14T17:09:32;29.90;69.50
15922;DHT22;8060;50.948;3.146;2023-06-14T17:12:00;29.90;69.30
15922;DHT22;8060;50.948;3.146;2023-06-14T17:14:28;29.80;68.70
15922;DHT22;8060;50.948;3.146;2023-06-14T17:16:56;29.70;68.50
15922;DHT22;8060;50.948;3.146;2023-06-14T17:19:25;29.60;69.00
15922;DHT22;8060;50.948;3.146;2023-06-14T17:21:53;29.40;68.80
15922;DHT22;8060;50.948;3.146;2023-06-14T17:24:21;29.50;69.10
15922;DHT22;8060;50.948;3.146;2023-06-14T17:26:54;29.40;69.10
15922;DHT22;8060;50.948;3.146;2023-06-14T17:29:23;29.50;69.80
15922;DHT22;8060;50.948;3.146;2023-06-14T17:31:53;29.40;69.40
15922;DHT22;8060;50.948;3.146;2023-06-14T17:34:21;29.30;68.70
15922;DHT22;8060;50.948;3.146;2023-06-14T17:36:49;29.30;69.00
15922;DHT22;8060;50.948;3.146;2023-06-14T17:39:18;29.30;68.70
15922;DHT22;8060;50.948;3.146;2023-06-14T17:41:46;29.10;68.90
15922;DHT22;8060;50.948;3.146;2023-06-14T17:44:15;29.00;69.40
15922;DHT22;8060;50.948;3.146;2023-06-14T17:46:43;29.00;69.30
15922;DHT22;8060;50.948;3.146;2023-06-14T17:49:12;29.10;69.20
15922;DHT22;8060;50.948;3.146;2023-06-14T17:51:40;29.00;69.40
15922;DHT22;8060;50.948;3.146;2023-06-14T17:54:08;28.90;69.30
15922;DHT22;8060;50.948;3.146;2023-06-14T17:56:36;28.90;69.20
15922;DHT22;8060;50.948;3.146;2023-06-14T17:59:04;28.70;69.10
15922;DHT22;8060;50.948;3.146;2023-06-14T18:01:34;28.70;69.70
15922;DHT22;8060;50.948;3.146;2023-06-14T18:04:02;28.50;69.80
15922;DHT22;8060;50.948;3.146;2023-06-14T18:06:30;28.50;70.60
15922;DHT22;8060;50.948;3.146;2023-06-14T18:08:59;28.50;69.30
15922;DHT22;8060;50.948;3.146;2023-06-14T18:11:28;28.40;69.90
15922;DHT22;8060;50.948;3.146;2023-06-14T18:13:57;28.40;70.10
15922;DHT22;8060;50.948;3.146;2023-06-14T18:16:26;28.40;70.70
15922;DHT22;8060;50.948;3.146;2023-06-14T18:18:55;28.40;70.10
15922;DHT22;8060;50.948;3.146;2023-06-14T18:21:23;28.40;70.10
15922;DHT22;8060;50.948;3.146;2023-06-14T18:23:52;28.40;70.30
15922;DHT22;8060;50.948;3.146;2023-06-14T18:26:23;28.40;70.40
15922;DHT22;8060;50.948;3.146;2023-06-14T18:28:53;28.30;70.50
15922;DHT22;8060;50.948;3.146;2023-06-14T18:31:21;28.30;70.60
15922;DHT22;8060;50.948;3.146;2023-06-14T18:33:49;28.20;70.40
15922;DHT22;8060;50.948;3.146;2023-06-14T18:36:19;28.20;70.90
15922;DHT22;8060;50.948;3.146;2023-06-14T18:38:47;28.00;71.20
15922;DHT22;8060;50.948;3.146;2023-06-14T18:41:16;27.90;71.60
15922;DHT22;8060;50.948;3.146;2023-06-14T18:43:44;27.90;72.00
15922;DHT22;8060;50.948;3.146;2023-06-14T18:46:12;27.90;71.90
15922;DHT22;8060;50.948;3.146;2023-06-14T18:48:41;27.90;71.30
15922;DHT22;8060;50.948;3.146;2023-06-14T18:51:10;27.90;71.60
15922;DHT22;8060;50.948;3.146;2023-06-14T18:53:40;27.80;71.60
15922;DHT22;8060;50.948;3.146;2023-06-14T18:56:08;27.70;71.60
15922;DHT22;8060;50.948;3.146;2023-06-14T18:58:36;27.70;71.50
15922;DHT22;8060;50.948;3.146;2023-06-14T19:01:04;27.60;71.70
15922;DHT22;8060;50.948;3.146;2023-06-14T19:03:33;27.50;72.00
15922;DHT22;8060;50.948;3.146;2023-06-14T19:06:01;27.50;72.70
15922;DHT22;8060;50.948;3.146;2023-06-14T19:08:29;27.40;72.30
15922;DHT22;8060;50.948;3.146;2023-06-14T19:10:59;27.30;73.00
15922;DHT22;8060;50.948;3.146;2023-06-14T19:13:27;27.30;73.00
15922;DHT22;8060;50.948;3.146;2023-06-14T19:15:57;27.20;73.20
15922;DHT22;8060;50.948;3.146;2023-06-14T19:18:25;27.10;73.50
